createdAt,value
2022-10-30T00:02:04.599Z,20.31
2022-10-30T00:07:06.058Z,20.26
2022-10-30T00:12:07.471Z,20.32
2022-10-30T00:17:08.835Z,20.28
2022-10-30T00:22:10.234Z,20.28
2022-10-30T00:27:11.595Z,20.24
2022-10-30T00:32:12.998Z,20.29
2022-10-30T00:37:14.359Z,20.24
2022-10-30T00:42:16.119Z,20.25
2022-10-30T00:47:25.073Z,20.25
2022-10-30T00:52:28.176Z,20.24
2022-10-30T00:57:29.539Z,20.19
2022-10-30T01:02:31.025Z,20.20
2022-10-30T01:07:32.515Z,20.18
2022-10-30T01:12:33.872Z,20.18
2022-10-30T01:17:57.784Z,20.15
2022-10-30T01:23:06.015Z,20.19
2022-10-30T01:28:17.579Z,20.30
2022-10-30T01:33:34.011Z,20.26
2022-10-30T01:38:38.552Z,20.19
2022-10-30T01:43:39.912Z,20.25
2022-10-30T01:49:18.856Z,20.24
2022-10-30T01:55:07.956Z,20.18
2022-10-30T02:00:10.732Z,20.18
2022-10-30T02:05:13.767Z,20.20
2022-10-30T02:10:15.146Z,20.26
2022-10-30T02:15:16.510Z,20.16
2022-10-30T02:20:19.067Z,20.18
2022-10-30T02:25:20.433Z,20.17
2022-10-30T02:30:21.796Z,20.23
2022-10-30T02:35:23.164Z,20.20
2022-10-30T02:40:24.527Z,20.23
2022-10-30T02:45:25.923Z,20.13
2022-10-30T02:50:27.311Z,20.19
2022-10-30T02:55:28.684Z,20.11
2022-10-30T03:00:30.079Z,20.14
2022-10-30T03:05:31.450Z,20.13
2022-10-30T03:10:32.816Z,20.16
2022-10-30T03:15:34.177Z,20.16
2022-10-30T03:20:35.551Z,20.23
2022-10-30T03:25:36.920Z,20.14
2022-10-30T03:30:38.279Z,20.13
2022-10-30T03:35:39.647Z,20.18
2022-10-30T03:40:41.050Z,20.16
2022-10-30T03:45:50.472Z,20.17
2022-10-30T03:50:55.131Z,20.22
2022-10-30T03:56:00.532Z,20.17
2022-10-30T04:01:03.015Z,20.16
2022-10-30T04:06:04.505Z,20.18
2022-10-30T04:11:05.893Z,20.10
2022-10-30T04:16:07.428Z,20.15
2022-10-30T04:21:08.795Z,20.14
2022-10-30T04:26:10.159Z,20.17
2022-10-30T04:31:11.524Z,20.12
2022-10-30T04:36:12.899Z,20.15
2022-10-30T04:41:14.263Z,20.11
2022-10-30T04:46:17.032Z,20.12
2022-10-30T04:51:18.401Z,20.13
2022-10-30T04:56:19.951Z,20.09
2022-10-30T05:01:21.392Z,20.08
2022-10-30T05:06:26.292Z,20.14
2022-10-30T05:11:27.716Z,20.10
2022-10-30T05:16:29.083Z,20.13
2022-10-30T05:21:30.459Z,20.14
2022-10-30T05:26:31.831Z,20.12
2022-10-30T05:31:33.186Z,20.11
2022-10-30T05:36:34.554Z,20.13
2022-10-30T05:41:35.907Z,20.12
2022-10-30T05:46:37.275Z,20.13
2022-10-30T05:51:40.588Z,20.14
2022-10-30T05:56:42.298Z,20.09
2022-10-30T06:06:46.368Z,20.08
2022-10-30T06:11:47.727Z,20.08
2022-10-30T06:16:49.188Z,20.11
2022-10-30T06:21:50.576Z,20.08
2022-10-30T06:26:51.952Z,20.11
2022-10-30T06:31:53.315Z,20.02
2022-10-30T06:36:54.886Z,20.11
2022-10-30T06:41:56.525Z,20.09
2022-10-30T06:46:57.893Z,20.12
2022-10-30T06:51:59.258Z,20.09
2022-10-30T06:57:00.716Z,20.09
2022-10-30T07:02:03.371Z,20.05
2022-10-30T07:07:08.306Z,20.11
2022-10-30T07:12:09.732Z,20.03
2022-10-30T07:17:11.119Z,20.06
2022-10-30T07:22:12.483Z,20.09
2022-10-30T07:27:13.842Z,20.09
2022-10-30T07:32:15.202Z,20.00
2022-10-30T07:37:16.559Z,20.04
2022-10-30T07:42:17.935Z,20.11
2022-10-30T07:47:19.304Z,20.12
2022-10-30T07:52:20.659Z,20.16
2022-10-30T07:57:22.026Z,20.08
2022-10-30T08:02:23.547Z,20.07
2022-10-30T08:07:35.094Z,20.06
2022-10-30T08:12:37.331Z,20.04
2022-10-30T08:17:45.979Z,20.09
2022-10-30T08:22:51.442Z,20.10
2022-10-30T08:27:59.260Z,20.05
2022-10-30T08:33:02.132Z,19.98
2022-10-30T08:38:03.767Z,20.05
2022-10-30T08:43:05.139Z,20.04
2022-10-30T08:48:06.751Z,20.02
2022-10-30T08:53:10.281Z,20.03
2022-10-30T08:58:11.634Z,19.97
2022-10-30T09:03:12.998Z,20.00
2022-10-30T09:08:14.379Z,19.92
2022-10-30T09:13:15.739Z,20.00
2022-10-30T09:18:17.113Z,20.01
2022-10-30T09:23:18.480Z,20.00
2022-10-30T09:28:19.838Z,20.01
2022-10-30T09:33:21.195Z,20.04
2022-10-30T09:38:22.555Z,20.03
2022-10-30T09:43:35.527Z,20.03
2022-10-30T09:48:52.424Z,20.06
2022-10-30T09:54:05.256Z,20.05
2022-10-30T09:59:17.700Z,20.07
2022-10-30T10:04:37.672Z,20.03
2022-10-30T10:09:39.227Z,20.13
2022-10-30T10:14:44.735Z,20.00
2022-10-30T10:19:53.252Z,20.10
2022-10-30T10:24:54.648Z,20.06
2022-10-30T10:30:12.368Z,20.11
2022-10-30T10:35:21.082Z,20.06
2022-10-30T10:40:37.009Z,20.09
2022-10-30T10:45:41.165Z,20.15
2022-10-30T10:50:52.892Z,20.16
2022-10-30T10:55:55.588Z,20.10
2022-10-30T11:00:58.250Z,20.16
2022-10-30T11:06:19.248Z,20.13
2022-10-30T11:11:20.610Z,20.14
2022-10-30T11:16:31.418Z,20.14
2022-10-30T11:21:35.123Z,20.10
2022-10-30T11:26:36.490Z,20.15
2022-10-30T11:31:42.232Z,20.17
2022-10-30T11:36:50.583Z,20.12
2022-10-30T11:42:14.614Z,20.10
2022-10-30T11:47:16.504Z,20.16
2022-10-30T11:52:18.998Z,20.19
2022-10-30T11:57:36.036Z,20.15
2022-10-30T12:02:42.618Z,20.13
2022-10-30T12:07:44.001Z,20.12
2022-10-30T12:12:45.411Z,20.12
2022-10-30T12:17:53.690Z,20.17
2022-10-30T12:22:55.101Z,20.18
2022-10-30T12:28:07.832Z,20.22
2022-10-30T12:33:15.098Z,20.19
2022-10-30T12:38:27.620Z,20.19
2022-10-30T12:43:29.028Z,20.16
2022-10-30T12:48:33.897Z,20.18
2022-10-30T12:53:59.625Z,20.16
2022-10-30T12:59:11.746Z,20.12
2022-10-30T13:04:18.786Z,20.14
2022-10-30T13:09:44.159Z,20.12
2022-10-30T13:14:47.936Z,20.14
2022-10-30T13:19:50.909Z,20.18
2022-10-30T13:25:04.008Z,20.14
2022-10-30T13:30:07.134Z,20.18
2022-10-30T13:35:20.562Z,20.16
2022-10-30T13:40:27.753Z,20.14
2022-10-30T13:46:08.163Z,20.19
2022-10-30T13:51:27.774Z,20.21
2022-10-30T13:56:29.135Z,20.20
2022-10-30T14:01:37.680Z,20.19
2022-10-30T14:06:51.191Z,20.17
2022-10-30T14:11:55.583Z,20.22
2022-10-30T14:17:16.040Z,20.20
2022-10-30T14:22:23.708Z,20.16
2022-10-30T14:27:30.273Z,20.19
2022-10-30T14:32:35.298Z,20.18
2022-10-30T14:37:36.544Z,20.24
2022-10-30T14:43:07.070Z,20.29
2022-10-30T14:48:16.427Z,20.29
2022-10-30T14:53:32.822Z,20.28
2022-10-30T14:58:38.028Z,20.24
2022-10-30T15:03:49.671Z,20.24
2022-10-30T15:09:14.786Z,20.26
2022-10-30T15:14:52.690Z,20.26
2022-10-30T15:19:50.695Z,20.24
2022-10-30T15:24:52.055Z,20.26
2022-10-30T15:29:59.271Z,20.31
2022-10-30T15:35:03.111Z,20.30
2022-10-30T15:40:13.902Z,20.22
2022-10-30T15:45:20.019Z,20.18
2022-10-30T15:50:21.664Z,20.30
2022-10-30T15:55:27.786Z,20.18
2022-10-30T16:00:34.515Z,20.17
2022-10-30T16:05:35.998Z,20.22
2022-10-30T16:10:37.359Z,20.21
2022-10-30T16:15:38.990Z,20.21
2022-10-30T16:20:41.361Z,20.22
2022-10-30T16:25:46.948Z,20.19
2022-10-30T16:30:49.066Z,20.20
2022-10-30T16:35:54.800Z,20.16
2022-10-30T16:40:57.374Z,20.18
2022-10-30T16:46:13.619Z,20.22
2022-10-30T16:51:16.414Z,20.17
2022-10-30T16:56:23.482Z,20.21
2022-10-30T17:01:26.258Z,20.22
2022-10-30T17:06:47.963Z,20.22
2022-10-30T17:12:07.715Z,20.14
2022-10-30T17:17:22.532Z,20.16
2022-10-30T17:22:23.950Z,20.16
2022-10-30T17:27:46.540Z,20.19
2022-10-30T17:32:52.911Z,20.21
2022-10-30T17:37:57.209Z,20.18
2022-10-30T17:43:01.245Z,20.18
2022-10-30T17:48:03.001Z,20.14
2022-10-30T17:53:04.551Z,20.17
2022-10-30T17:58:05.920Z,20.16
2022-10-30T18:03:07.330Z,20.14
2022-10-30T18:08:08.691Z,20.13
2022-10-30T18:13:12.379Z,20.11
2022-10-30T18:18:13.760Z,20.06
2022-10-30T18:23:52.275Z,20.10
2022-10-30T18:28:43.475Z,20.11
2022-10-30T18:33:44.891Z,20.17
2022-10-30T18:38:46.270Z,20.10
2022-10-30T18:43:47.697Z,20.07
2022-10-30T18:48:49.079Z,20.12
2022-10-30T18:53:53.422Z,20.10
2022-10-30T18:58:58.746Z,20.10
2022-10-30T19:04:04.319Z,20.13
2022-10-30T19:09:06.098Z,20.14
2022-10-30T19:14:12.006Z,20.04
2022-10-30T19:19:14.788Z,20.05
2022-10-30T19:24:17.630Z,20.14
2022-10-30T19:29:18.990Z,20.08
2022-10-30T19:34:20.356Z,20.14
2022-10-30T19:39:21.718Z,20.07
2022-10-30T19:44:23.087Z,20.05
2022-10-30T19:49:24.583Z,20.07
2022-10-30T19:54:25.945Z,20.13
2022-10-30T19:59:27.307Z,20.09
2022-10-30T20:04:28.676Z,20.07
2022-10-30T20:09:30.861Z,20.10
2022-10-30T20:14:32.220Z,20.11
2022-10-30T20:19:33.588Z,20.06
2022-10-30T20:24:34.952Z,20.04
2022-10-30T20:29:36.775Z,20.06
2022-10-30T20:34:38.150Z,20.04
2022-10-30T20:39:39.507Z,20.03
2022-10-30T20:44:40.879Z,20.06
2022-10-30T20:49:42.457Z,20.03
2022-10-30T20:54:43.819Z,20.07
2022-10-30T20:59:45.183Z,20.03
2022-10-30T21:04:46.553Z,20.06
2022-10-30T21:09:47.927Z,20.00
2022-10-30T21:14:49.313Z,19.97
2022-10-30T21:19:50.724Z,20.05
2022-10-30T21:24:52.091Z,20.07
2022-10-30T21:29:53.446Z,20.03
2022-10-30T21:34:54.811Z,19.98
2022-10-30T21:39:56.167Z,20.01
2022-10-30T21:44:57.544Z,20.03
2022-10-30T21:49:58.907Z,20.03
2022-10-30T21:55:00.274Z,20.06
2022-10-30T22:00:05.603Z,19.97
2022-10-30T22:05:07.747Z,19.98
2022-10-30T22:10:09.119Z,20.03
2022-10-30T22:15:10.643Z,20.00
2022-10-30T22:20:12.026Z,20.02
2022-10-30T22:25:13.427Z,19.95
2022-10-30T22:30:14.796Z,20.00
2022-10-30T22:35:16.156Z,20.01
2022-10-30T22:40:17.518Z,20.02
2022-10-30T22:45:18.892Z,20.02
2022-10-30T22:50:20.247Z,19.94
2022-10-30T22:55:21.606Z,19.91
2022-10-30T23:00:27.308Z,19.98
2022-10-30T23:05:28.672Z,19.93
2022-10-30T23:10:30.034Z,19.95
2022-10-30T23:15:31.447Z,19.92
2022-10-30T23:20:32.820Z,19.96
2022-10-30T23:25:34.747Z,19.98
2022-10-30T23:30:36.611Z,19.94
2022-10-30T23:35:37.983Z,19.99
2022-10-30T23:40:39.343Z,19.93
2022-10-30T23:45:40.710Z,19.90
2022-10-30T23:50:42.080Z,19.98
2022-10-30T23:55:52.906Z,20.03
